sensor_id;sensor_type;location;lat;lon;timestamp;pressure;altitude;pressure_sealevel;temperature;humidity
9261;BME280;4667;42.726;23.252;2023-02-26T00:02:25;94050.22;;;14.26;nan
9261;BME280;4667;42.726;23.252;2023-02-26T00:04:53;94040.44;;;14.16;nan
9261;BME280;4667;42.726;23.252;2023-02-26T00:07:20;94041.06;;;14.20;nan
9261;BME280;4667;42.726;23.252;2023-02-26T00:09:47;94047.28;;;14.21;nan
9261;BME280;4667;42.726;23.252;2023-02-26T00:12:14;94034.31;;;14.25;nan
9261;BME280;4667;42.726;23.252;2023-02-26T00:14:41;94045.09;;;14.28;nan
9261;BME280;4667;42.726;23.252;2023-02-26T00:17:28;94048.13;;;14.30;nan
9261;BME280;4667;42.726;23.252;2023-02-26T00:20:00;94036.59;;;14.26;nan
9261;BME280;4667;42.726;23.252;2023-02-26T00:22:27;94023.66;;;14.18;nan
9261;BME280;4667;42.726;23.252;2023-02-26T00:24:54;94032.50;;;14.09;nan
9261;BME280;4667;42.726;23.252;2023-02-26T00:27:21;94033.69;;;14.08;nan
9261;BME280;4667;42.726;23.252;2023-02-26T00:29:48;94012.88;;;14.14;nan
9261;BME280;4667;42.726;23.252;2023-02-26T00:32:15;94009.38;;;14.14;nan
9261;BME280;4667;42.726;23.252;2023-02-26T00:34:44;94014.19;;;14.10;nan
9261;BME280;4667;42.726;23.252;2023-02-26T00:37:21;94005.69;;;14.20;nan
9261;BME280;4667;42.726;23.252;2023-02-26T00:39:58;94006.97;;;14.28;nan
9261;BME280;4667;42.726;23.252;2023-02-26T00:42:31;94004.28;;;14.16;nan
9261;BME280;4667;42.726;23.252;2023-02-26T00:44:58;94006.25;;;14.03;nan
9261;BME280;4667;42.726;23.252;2023-02-26T00:47:29;94002.66;;;14.06;nan
9261;BME280;4667;42.726;23.252;2023-02-26T00:50:10;94003.97;;;14.01;nan
9261;BME280;4667;42.726;23.252;2023-02-26T00:52:43;93995.00;;;14.13;nan
9261;BME280;4667;42.726;23.252;2023-02-26T00:55:13;94004.50;;;14.09;nan
9261;BME280;4667;42.726;23.252;2023-02-26T00:57:40;94013.50;;;14.18;nan
9261;BME280;4667;42.726;23.252;2023-02-26T01:00:08;93995.91;;;14.10;nan
9261;BME280;4667;42.726;23.252;2023-02-26T01:02:36;94004.63;;;14.05;nan
9261;BME280;4667;42.726;23.252;2023-02-26T01:05:04;94003.63;;;14.12;nan
9261;BME280;4667;42.726;23.252;2023-02-26T01:07:39;94004.38;;;14.12;nan
9261;BME280;4667;42.726;23.252;2023-02-26T01:10:09;94015.81;;;14.20;nan
9261;BME280;4667;42.726;23.252;2023-02-26T01:12:37;93990.09;;;14.21;nan
9261;BME280;4667;42.726;23.252;2023-02-26T01:15:05;93999.38;;;14.23;nan
9261;BME280;4667;42.726;23.252;2023-02-26T01:17:35;93992.34;;;14.35;nan
9261;BME280;4667;42.726;23.252;2023-02-26T01:20:08;93973.88;;;14.17;nan
9261;BME280;4667;42.726;23.252;2023-02-26T01:22:40;93963.75;;;14.18;nan
9261;BME280;4667;42.726;23.252;2023-02-26T01:25:12;94002.41;;;14.13;nan
9261;BME280;4667;42.726;23.252;2023-02-26T01:27:40;93975.44;;;14.06;nan
9261;BME280;4667;42.726;23.252;2023-02-26T01:30:08;93964.00;;;14.11;nan
9261;BME280;4667;42.726;23.252;2023-02-26T01:32:42;93963.09;;;14.14;nan
9261;BME280;4667;42.726;23.252;2023-02-26T01:35:20;93963.00;;;14.17;nan
9261;BME280;4667;42.726;23.252;2023-02-26T01:37:52;93955.88;;;14.20;nan
9261;BME280;4667;42.726;23.252;2023-02-26T01:40:35;93939.50;;;14.11;nan
9261;BME280;4667;42.726;23.252;2023-02-26T01:43:09;93939.38;;;14.02;nan
9261;BME280;4667;42.726;23.252;2023-02-26T01:45:46;93950.81;;;14.09;nan
9261;BME280;4667;42.726;23.252;2023-02-26T01:48:20;93955.88;;;14.20;nan
9261;BME280;4667;42.726;23.252;2023-02-26T01:50:51;93932.34;;;14.26;nan
9261;BME280;4667;42.726;23.252;2023-02-26T01:53:21;93950.69;;;14.13;nan
9261;BME280;4667;42.726;23.252;2023-02-26T01:55:54;93955.13;;;14.19;nan
9261;BME280;4667;42.726;23.252;2023-02-26T01:58:23;93953.72;;;14.15;nan
9261;BME280;4667;42.726;23.252;2023-02-26T02:00:51;93916.38;;;14.15;nan
9261;BME280;4667;42.726;23.252;2023-02-26T02:03:19;93914.47;;;14.25;nan
9261;BME280;4667;42.726;23.252;2023-02-26T02:05:51;93927.63;;;14.05;nan
9261;BME280;4667;42.726;23.252;2023-02-26T02:08:20;93906.47;;;14.09;nan
9261;BME280;4667;42.726;23.252;2023-02-26T02:10:51;93929.31;;;14.24;nan
9261;BME280;4667;42.726;23.252;2023-02-26T02:13:45;93912.53;;;13.91;nan
9261;BME280;4667;42.726;23.252;2023-02-26T02:16:24;93936.81;;;13.85;nan
9261;BME280;4667;42.726;23.252;2023-02-26T02:19:00;93917.31;;;14.00;nan
9261;BME280;4667;42.726;23.252;2023-02-26T02:21:46;93921.78;;;13.94;nan
9261;BME280;4667;42.726;23.252;2023-02-26T02:24:19;93914.44;;;14.03;nan
9261;BME280;4667;42.726;23.252;2023-02-26T02:27:00;93913.25;;;14.04;nan
9261;BME280;4667;42.726;23.252;2023-02-26T02:29:57;93922.56;;;13.94;nan
9261;BME280;4667;42.726;23.252;2023-02-26T02:32:30;93921.13;;;13.89;nan
9261;BME280;4667;42.726;23.252;2023-02-26T02:35:08;93907.22;;;13.87;nan
9261;BME280;4667;42.726;23.252;2023-02-26T02:37:40;93913.38;;;14.01;nan
9261;BME280;4667;42.726;23.252;2023-02-26T02:40:11;93911.97;;;13.96;nan
9261;BME280;4667;42.726;23.252;2023-02-26T02:42:42;93927.53;;;13.96;nan
9261;BME280;4667;42.726;23.252;2023-02-26T02:45:16;93942.31;;;14.07;nan
9261;BME280;4667;42.726;23.252;2023-02-26T02:47:48;93941.28;;;13.92;nan
9261;BME280;4667;42.726;23.252;2023-02-26T02:50:19;93929.47;;;14.08;nan
9261;BME280;4667;42.726;23.252;2023-02-26T02:52:50;93925.69;;;14.05;nan
9261;BME280;4667;42.726;23.252;2023-02-26T02:55:21;93946.75;;;14.14;nan
9261;BME280;4667;42.726;23.252;2023-02-26T02:57:54;93965.00;;;14.04;nan
9261;BME280;4667;42.726;23.252;2023-02-26T03:00:26;93984.13;;;14.13;nan
9261;BME280;4667;42.726;23.252;2023-02-26T03:03:00;93966.50;;;14.05;nan
9261;BME280;4667;42.726;23.252;2023-02-26T03:05:28;93944.41;;;14.03;nan
9261;BME280;4667;42.726;23.252;2023-02-26T03:07:58;93950.59;;;14.04;nan
9261;BME280;4667;42.726;23.252;2023-02-26T03:10:27;93958.00;;;14.03;nan
9261;BME280;4667;42.726;23.252;2023-02-26T03:12:54;93954.72;;;14.08;nan
9261;BME280;4667;42.726;23.252;2023-02-26T03:15:28;93960.50;;;14.10;nan
9261;BME280;4667;42.726;23.252;2023-02-26T03:18:05;93936.31;;;14.12;nan
9261;BME280;4667;42.726;23.252;2023-02-26T03:20:43;93943.78;;;13.86;nan
9261;BME280;4667;42.726;23.252;2023-02-26T03:23:17;93934.31;;;13.91;nan
9261;BME280;4667;42.726;23.252;2023-02-26T03:25:49;93931.44;;;13.95;nan
9261;BME280;4667;42.726;23.252;2023-02-26T03:28:20;93948.25;;;13.93;nan
9261;BME280;4667;42.726;23.252;2023-02-26T03:30:55;93929.69;;;14.01;nan
9261;BME280;4667;42.726;23.252;2023-02-26T03:33:27;93944.84;;;14.02;nan
9261;BME280;4667;42.726;23.252;2023-02-26T03:36:00;93928.44;;;13.93;nan
9261;BME280;4667;42.726;23.252;2023-02-26T03:38:36;93938.03;;;13.84;nan
9261;BME280;4667;42.726;23.252;2023-02-26T03:41:07;93934.09;;;13.85;nan
9261;BME280;4667;42.726;23.252;2023-02-26T03:43:37;93930.25;;;13.96;nan
9261;BME280;4667;42.726;23.252;2023-02-26T03:46:09;93930.50;;;13.88;nan
9261;BME280;4667;42.726;23.252;2023-02-26T03:48:42;93930.38;;;13.92;nan
9261;BME280;4667;42.726;23.252;2023-02-26T03:51:11;93937.22;;;13.97;nan
9261;BME280;4667;42.726;23.252;2023-02-26T03:53:43;93933.16;;;14.14;nan
9261;BME280;4667;42.726;23.252;2023-02-26T03:56:17;93933.53;;;13.90;nan
9261;BME280;4667;42.726;23.252;2023-02-26T03:59:09;93928.31;;;13.96;nan
9261;BME280;4667;42.726;23.252;2023-02-26T04:01:55;93936.47;;;13.96;nan
9261;BME280;4667;42.726;23.252;2023-02-26T04:04:43;93934.53;;;13.84;nan
9261;BME280;4667;42.726;23.252;2023-02-26T04:07:57;93928.69;;;13.73;nan
9261;BME280;4667;42.726;23.252;2023-02-26T04:10:41;93920.28;;;13.80;nan
9261;BME280;4667;42.726;23.252;2023-02-26T04:13:23;93919.59;;;13.88;nan
9261;BME280;4667;42.726;23.252;2023-02-26T04:16:08;93923.44;;;13.78;nan
9261;BME280;4667;42.726;23.252;2023-02-26T04:18:35;93912.53;;;13.91;nan
9261;BME280;4667;42.726;23.252;2023-02-26T04:23:29;93905.47;;;13.94;nan
9261;BME280;4667;42.726;23.252;2023-02-26T04:28:27;93902.84;;;13.90;nan
9261;BME280;4667;42.726;23.252;2023-02-26T04:31:10;93885.06;;;13.98;nan
9261;BME280;4667;42.726;23.252;2023-02-26T04:34:04;93879.25;;;14.09;nan
9261;BME280;4667;42.726;23.252;2023-02-26T04:36:33;93885.19;;;13.95;nan
9261;BME280;4667;42.726;23.252;2023-02-26T04:39:08;93896.03;;;13.73;nan
9261;BME280;4667;42.726;23.252;2023-02-26T04:41:36;93887.06;;;13.85;nan
9261;BME280;4667;42.726;23.252;2023-02-26T04:44:03;93885.44;;;13.87;nan
9261;BME280;4667;42.726;23.252;2023-02-26T04:46:31;93868.16;;;13.81;nan
9261;BME280;4667;42.726;23.252;2023-02-26T04:48:58;93871.13;;;13.96;nan
9261;BME280;4667;42.726;23.252;2023-02-26T04:51:25;93860.78;;;14.04;nan
9261;BME280;4667;42.726;23.252;2023-02-26T04:53:51;93864.44;;;14.10;nan
9261;BME280;4667;42.726;23.252;2023-02-26T04:56:20;93857.41;;;14.00;nan
9261;BME280;4667;42.726;23.252;2023-02-26T04:58:46;93876.56;;;13.96;nan
9261;BME280;4667;42.726;23.252;2023-02-26T05:01:13;93860.06;;;13.90;nan
9261;BME280;4667;42.726;23.252;2023-02-26T05:03:40;93843.00;;;14.12;nan
9261;BME280;4667;42.726;23.252;2023-02-26T05:06:07;93848.91;;;13.98;nan
9261;BME280;4667;42.726;23.252;2023-02-26T05:08:33;93837.13;;;14.01;nan
9261;BME280;4667;42.726;23.252;2023-02-26T05:11:00;93852.88;;;13.84;nan
9261;BME280;4667;42.726;23.252;2023-02-26T05:13:36;93840.38;;;13.86;nan
9261;BME280;4667;42.726;23.252;2023-02-26T05:16:17;93829.59;;;13.83;nan
9261;BME280;4667;42.726;23.252;2023-02-26T05:18:44;93822.28;;;13.93;nan
9261;BME280;4667;42.726;23.252;2023-02-26T05:21:11;93835.56;;;13.90;nan
9261;BME280;4667;42.726;23.252;2023-02-26T05:23:38;93842.53;;;13.92;nan
9261;BME280;4667;42.726;23.252;2023-02-26T05:26:04;93813.47;;;14.10;nan
9261;BME280;4667;42.726;23.252;2023-02-26T05:28:32;93800.88;;;14.04;nan
9261;BME280;4667;42.726;23.252;2023-02-26T05:31:01;93816.97;;;14.11;nan
9261;BME280;4667;42.726;23.252;2023-02-26T05:33:27;93816.97;;;14.11;nan
9261;BME280;4667;42.726;23.252;2023-02-26T05:35:54;93823.94;;;14.12;nan
9261;BME280;4667;42.726;23.252;2023-02-26T05:38:22;93825.38;;;14.04;nan
9261;BME280;4667;42.726;23.252;2023-02-26T05:40:49;93809.38;;;14.06;nan
9261;BME280;4667;42.726;23.252;2023-02-26T05:43:16;93820.03;;;14.00;nan
9261;BME280;4667;42.726;23.252;2023-02-26T05:45:44;93804.88;;;14.12;nan
9261;BME280;4667;42.726;23.252;2023-02-26T05:48:11;93810.69;;;14.23;nan
9261;BME280;4667;42.726;23.252;2023-02-26T05:50:38;93813.22;;;14.17;nan
9261;BME280;4667;42.726;23.252;2023-02-26T05:53:05;93807.59;;;14.12;nan
9261;BME280;4667;42.726;23.252;2023-02-26T05:55:31;93819.63;;;14.23;nan
9261;BME280;4667;42.726;23.252;2023-02-26T05:58:01;93801.03;;;14.31;nan
9261;BME280;4667;42.726;23.252;2023-02-26T06:00:27;93818.28;;;14.28;nan
9261;BME280;4667;42.726;23.252;2023-02-26T06:02:56;93786.09;;;14.36;nan
9261;BME280;4667;42.726;23.252;2023-02-26T06:05:23;93805.06;;;14.39;nan
9261;BME280;4667;42.726;23.252;2023-02-26T06:07:50;93803.59;;;14.47;nan
9261;BME280;4667;42.726;23.252;2023-02-26T06:10:17;93798.25;;;14.65;nan
9261;BME280;4667;42.726;23.252;2023-02-26T06:12:44;93806.41;;;14.65;nan
9261;BME280;4667;42.726;23.252;2023-02-26T06:15:11;93832.78;;;14.78;nan
9261;BME280;4667;42.726;23.252;2023-02-26T06:17:38;93807.00;;;15.00;nan
9261;BME280;4667;42.726;23.252;2023-02-26T06:20:09;93814.88;;;15.07;nan
9261;BME280;4667;42.726;23.252;2023-02-26T06:22:36;93811.28;;;15.10;nan
9261;BME280;4667;42.726;23.252;2023-02-26T06:25:04;93809.47;;;15.17;nan
9261;BME280;4667;42.726;23.252;2023-02-26T06:27:31;93807.03;;;15.09;nan
9261;BME280;4667;42.726;23.252;2023-02-26T06:29:58;93812.69;;;15.24;nan
9261;BME280;4667;42.726;23.252;2023-02-26T06:32:27;93811.47;;;15.25;nan
9261;BME280;4667;42.726;23.252;2023-02-26T06:34:54;93801.78;;;15.33;nan
9261;BME280;4667;42.726;23.252;2023-02-26T06:37:22;93829.72;;;15.46;nan
9261;BME280;4667;42.726;23.252;2023-02-26T06:39:48;93808.31;;;15.36;nan
9261;BME280;4667;42.726;23.252;2023-02-26T06:42:16;93835.59;;;15.36;nan
9261;BME280;4667;42.726;23.252;2023-02-26T06:44:42;93824.25;;;15.46;nan
9261;BME280;4667;42.726;23.252;2023-02-26T06:47:09;93810.00;;;15.42;nan
9261;BME280;4667;42.726;23.252;2023-02-26T06:49:38;93808.66;;;15.56;nan
9261;BME280;4667;42.726;23.252;2023-02-26T06:52:05;93807.47;;;15.66;nan
9261;BME280;4667;42.726;23.252;2023-02-26T06:54:33;93808.81;;;15.62;nan
9261;BME280;4667;42.726;23.252;2023-02-26T06:57:02;93842.22;;;15.75;nan
9261;BME280;4667;42.726;23.252;2023-02-26T06:59:29;93800.38;;;15.78;nan
9261;BME280;4667;42.726;23.252;2023-02-26T07:01:56;93816.44;;;15.76;nan
9261;BME280;4667;42.726;23.252;2023-02-26T07:04:23;93831.16;;;15.78;nan
9261;BME280;4667;42.726;23.252;2023-02-26T07:06:50;93797.63;;;15.87;nan
9261;BME280;4667;42.726;23.252;2023-02-26T07:09:17;93799.31;;;15.84;nan
9261;BME280;4667;42.726;23.252;2023-02-26T07:11:46;93854.81;;;15.90;nan
9261;BME280;4667;42.726;23.252;2023-02-26T07:14:13;93823.88;;;15.84;nan
9261;BME280;4667;42.726;23.252;2023-02-26T07:16:39;93824.94;;;16.05;nan
9261;BME280;4667;42.726;23.252;2023-02-26T07:19:06;93831.16;;;15.87;nan
9261;BME280;4667;42.726;23.252;2023-02-26T07:21:33;93829.19;;;16.06;nan
9261;BME280;4667;42.726;23.252;2023-02-26T07:24:00;93818.25;;;15.97;nan
9261;BME280;4667;42.726;23.252;2023-02-26T07:26:27;93827.97;;;15.98;nan
9261;BME280;4667;42.726;23.252;2023-02-26T07:28:55;93830.41;;;16.05;nan
9261;BME280;4667;42.726;23.252;2023-02-26T07:31:22;93845.88;;;16.08;nan
9261;BME280;4667;42.726;23.252;2023-02-26T07:33:48;93817.66;;;16.11;nan
9261;BME280;4667;42.726;23.252;2023-02-26T07:36:15;93813.25;;;16.14;nan
9261;BME280;4667;42.726;23.252;2023-02-26T07:38:42;93798.34;;;16.33;nan
9261;BME280;4667;42.726;23.252;2023-02-26T07:41:09;93806.69;;;16.29;nan
9261;BME280;4667;42.726;23.252;2023-02-26T07:43:36;93785.47;;;16.15;nan
9261;BME280;4667;42.726;23.252;2023-02-26T07:46:04;93818.09;;;16.10;nan
9261;BME280;4667;42.726;23.252;2023-02-26T07:48:31;93792.44;;;16.16;nan
9261;BME280;4667;42.726;23.252;2023-02-26T07:50:58;93835.09;;;16.23;nan
9261;BME280;4667;42.726;23.252;2023-02-26T07:53:25;93807.47;;;16.12;nan
9261;BME280;4667;42.726;23.252;2023-02-26T07:55:52;93811.25;;;16.32;nan
9261;BME280;4667;42.726;23.252;2023-02-26T07:58:18;93800.34;;;16.32;nan
9261;BME280;4667;42.726;23.252;2023-02-26T08:00:45;93809.75;;;16.31;nan
9261;BME280;4667;42.726;23.252;2023-02-26T08:03:14;93810.47;;;16.41;nan
9261;BME280;4667;42.726;23.252;2023-02-26T08:05:40;93812.00;;;16.42;nan
9261;BME280;4667;42.726;23.252;2023-02-26T08:08:07;93787.94;;;16.73;nan
9261;BME280;4667;42.726;23.252;2023-02-26T08:10:34;93834.91;;;16.63;nan
9261;BME280;4667;42.726;23.252;2023-02-26T08:13:01;93791.47;;;16.56;nan
9261;BME280;4667;42.726;23.252;2023-02-26T08:15:28;93800.69;;;16.77;nan
9261;BME280;4667;42.726;23.252;2023-02-26T08:17:54;93833.50;;;16.77;nan
9261;BME280;4667;42.726;23.252;2023-02-26T08:20:24;93825.75;;;16.75;nan
9261;BME280;4667;42.726;23.252;2023-02-26T08:22:51;93831.13;;;16.60;nan
9261;BME280;4667;42.726;23.252;2023-02-26T08:25:18;93838.66;;;16.74;nan
9261;BME280;4667;42.726;23.252;2023-02-26T08:27:45;93858.69;;;16.90;nan
9261;BME280;4667;42.726;23.252;2023-02-26T08:30:12;93854.41;;;16.98;nan
9261;BME280;4667;42.726;23.252;2023-02-26T08:32:41;93820.72;;;16.92;nan
9261;BME280;4667;42.726;23.252;2023-02-26T08:35:09;93829.84;;;17.22;nan
9261;BME280;4667;42.726;23.252;2023-02-26T08:37:37;93825.00;;;17.17;nan
9261;BME280;4667;42.726;23.252;2023-02-26T08:40:05;93826.44;;;17.03;nan
9261;BME280;4667;42.726;23.252;2023-02-26T08:42:39;93829.25;;;17.18;nan
9261;BME280;4667;42.726;23.252;2023-02-26T08:45:09;93838.59;;;17.35;nan
9261;BME280;4667;42.726;23.252;2023-02-26T08:47:36;93839.09;;;17.57;nan
9261;BME280;4667;42.726;23.252;2023-02-26T08:50:06;93849.88;;;17.61;nan
9261;BME280;4667;42.726;23.252;2023-02-26T08:52:34;93838.06;;;17.78;nan
9261;BME280;4667;42.726;23.252;2023-02-26T08:55:02;93818.09;;;17.54;nan
9261;BME280;4667;42.726;23.252;2023-02-26T08:57:31;93838.81;;;17.79;nan
9261;BME280;4667;42.726;23.252;2023-02-26T08:59:58;93855.19;;;17.64;nan
9261;BME280;4667;42.726;23.252;2023-02-26T09:02:24;93833.28;;;17.64;nan
9261;BME280;4667;42.726;23.252;2023-02-26T09:04:51;93887.72;;;17.95;nan
9261;BME280;4667;42.726;23.252;2023-02-26T09:07:18;93845.00;;;17.65;nan
9261;BME280;4667;42.726;23.252;2023-02-26T09:09:48;93848.50;;;17.65;nan
9261;BME280;4667;42.726;23.252;2023-02-26T09:12:24;93862.81;;;17.84;nan
9261;BME280;4667;42.726;23.252;2023-02-26T09:14:51;93835.53;;;17.89;nan
9261;BME280;4667;42.726;23.252;2023-02-26T09:17:18;93869.94;;;17.90;nan
9261;BME280;4667;42.726;23.252;2023-02-26T09:19:44;93840.00;;;18.25;nan
9261;BME280;4667;42.726;23.252;2023-02-26T09:22:11;93851.00;;;18.40;nan
9261;BME280;4667;42.726;23.252;2023-02-26T09:24:38;93851.13;;;18.60;nan
9261;BME280;4667;42.726;23.252;2023-02-26T09:27:05;93834.28;;;18.97;nan
9261;BME280;4667;42.726;23.252;2023-02-26T09:29:33;93844.16;;;19.38;nan
9261;BME280;4667;42.726;23.252;2023-02-26T09:32:00;93836.75;;;19.44;nan
9261;BME280;4667;42.726;23.252;2023-02-26T09:34:27;93847.50;;;19.77;nan
9261;BME280;4667;42.726;23.252;2023-02-26T09:36:54;93831.16;;;19.88;nan
9261;BME280;4667;42.726;23.252;2023-02-26T09:39:21;93843.31;;;20.43;nan
9261;BME280;4667;42.726;23.252;2023-02-26T09:41:50;93826.63;;;20.52;nan
9261;BME280;4667;42.726;23.252;2023-02-26T09:44:23;93834.56;;;20.04;nan
9261;BME280;4667;42.726;23.252;2023-02-26T09:47:00;93876.44;;;20.79;nan
9261;BME280;4667;42.726;23.252;2023-02-26T09:49:34;93857.84;;;20.08;nan
9261;BME280;4667;42.726;23.252;2023-02-26T09:52:14;93884.53;;;19.67;nan
9261;BME280;4667;42.726;23.252;2023-02-26T09:54:45;93848.16;;;19.72;nan
9261;BME280;4667;42.726;23.252;2023-02-26T09:57:29;93864.44;;;19.96;nan
9261;BME280;4667;42.726;23.252;2023-02-26T09:59:59;93853.34;;;20.05;nan
9261;BME280;4667;42.726;23.252;2023-02-26T10:02:35;93856.56;;;20.44;nan
9261;BME280;4667;42.726;23.252;2023-02-26T10:05:14;93864.81;;;20.24;nan
9261;BME280;4667;42.726;23.252;2023-02-26T10:07:48;93868.13;;;20.48;nan
9261;BME280;4667;42.726;23.252;2023-02-26T10:10:26;93905.56;;;20.66;nan
9261;BME280;4667;42.726;23.252;2023-02-26T10:12:55;93844.81;;;20.44;nan
9261;BME280;4667;42.726;23.252;2023-02-26T10:15:27;93830.94;;;20.32;nan
9261;BME280;4667;42.726;23.252;2023-02-26T10:18:03;93837.75;;;20.89;nan
9261;BME280;4667;42.726;23.252;2023-02-26T10:20:35;93859.38;;;20.50;nan
9261;BME280;4667;42.726;23.252;2023-02-26T10:23:11;93863.38;;;20.74;nan
9261;BME280;4667;42.726;23.252;2023-02-26T10:25:47;93892.38;;;20.96;nan
9261;BME280;4667;42.726;23.252;2023-02-26T10:28:35;93847.91;;;20.77;nan
9261;BME280;4667;42.726;23.252;2023-02-26T10:31:08;93854.03;;;20.92;nan
9261;BME280;4667;42.726;23.252;2023-02-26T10:33:44;93805.75;;;20.40;nan
9261;BME280;4667;42.726;23.252;2023-02-26T10:36:18;93812.28;;;20.42;nan
9261;BME280;4667;42.726;23.252;2023-02-26T10:38:48;93813.97;;;20.60;nan
9261;BME280;4667;42.726;23.252;2023-02-26T10:41:19;93805.50;;;20.95;nan
9261;BME280;4667;42.726;23.252;2023-02-26T10:43:50;93814.06;;;20.71;nan
9261;BME280;4667;42.726;23.252;2023-02-26T10:46:24;93811.94;;;20.86;nan
9261;BME280;4667;42.726;23.252;2023-02-26T10:49:06;93826.81;;;20.43;nan
9261;BME280;4667;42.726;23.252;2023-02-26T10:51:39;93810.44;;;19.73;nan
9261;BME280;4667;42.726;23.252;2023-02-26T10:54:13;93844.69;;;19.72;nan
9261;BME280;4667;42.726;23.252;2023-02-26T10:56:42;93823.09;;;19.65;nan
9261;BME280;4667;42.726;23.252;2023-02-26T10:59:09;93799.38;;;19.32;nan
9261;BME280;4667;42.726;23.252;2023-02-26T11:01:36;93819.34;;;18.98;nan
9261;BME280;4667;42.726;23.252;2023-02-26T11:04:06;93801.00;;;18.74;nan
9261;BME280;4667;42.726;23.252;2023-02-26T11:06:41;93832.03;;;18.66;nan
9261;BME280;4667;42.726;23.252;2023-02-26T11:09:18;93793.59;;;18.51;nan
9261;BME280;4667;42.726;23.252;2023-02-26T11:11:48;93781.44;;;18.82;nan
9261;BME280;4667;42.726;23.252;2023-02-26T11:14:16;93817.84;;;18.67;nan
9261;BME280;4667;42.726;23.252;2023-02-26T11:16:47;93813.25;;;18.50;nan
9261;BME280;4667;42.726;23.252;2023-02-26T11:19:19;93781.09;;;18.35;nan
9261;BME280;4667;42.726;23.252;2023-02-26T11:21:49;93794.91;;;18.41;nan
9261;BME280;4667;42.726;23.252;2023-02-26T11:24:22;93846.03;;;18.29;nan
9261;BME280;4667;42.726;23.252;2023-02-26T11:26:53;93816.81;;;18.12;nan
9261;BME280;4667;42.726;23.252;2023-02-26T11:29:24;93783.25;;;18.02;nan
9261;BME280;4667;42.726;23.252;2023-02-26T11:31:54;93811.84;;;17.86;nan
9261;BME280;4667;42.726;23.252;2023-02-26T11:34:28;93789.56;;;17.70;nan
9261;BME280;4667;42.726;23.252;2023-02-26T11:36:58;93840.53;;;17.43;nan
9261;BME280;4667;42.726;23.252;2023-02-26T11:39:28;93818.94;;;17.45;nan
9261;BME280;4667;42.726;23.252;2023-02-26T11:42:00;93818.88;;;17.54;nan
9261;BME280;4667;42.726;23.252;2023-02-26T11:44:34;93805.63;;;17.62;nan
9261;BME280;4667;42.726;23.252;2023-02-26T11:47:04;93829.72;;;17.40;nan
9261;BME280;4667;42.726;23.252;2023-02-26T11:49:33;93813.09;;;17.52;nan
9261;BME280;4667;42.726;23.252;2023-02-26T11:52:19;93814.94;;;17.23;nan
9261;BME280;4667;42.726;23.252;2023-02-26T11:54:49;93856.06;;;17.70;nan
9261;BME280;4667;42.726;23.252;2023-02-26T11:57:19;93846.78;;;17.35;nan
9261;BME280;4667;42.726;23.252;2023-02-26T11:59:50;93847.34;;;17.48;nan
9261;BME280;4667;42.726;23.252;2023-02-26T12:02:20;93858.94;;;17.43;nan
9261;BME280;4667;42.726;23.252;2023-02-26T12:04:51;93883.63;;;17.34;nan
9261;BME280;4667;42.726;23.252;2023-02-26T12:07:19;93891.28;;;17.53;nan
9261;BME280;4667;42.726;23.252;2023-02-26T12:09:49;93912.09;;;17.60;nan
9261;BME280;4667;42.726;23.252;2023-02-26T12:12:39;93962.66;;;17.41;nan
9261;BME280;4667;42.726;23.252;2023-02-26T12:15:21;93938.53;;;17.21;nan
9261;BME280;4667;42.726;23.252;2023-02-26T12:17:59;93929.53;;;17.30;nan
9261;BME280;4667;42.726;23.252;2023-02-26T12:20:32;93931.00;;;17.49;nan
9261;BME280;4667;42.726;23.252;2023-02-26T12:23:15;93933.63;;;17.76;nan
9261;BME280;4667;42.726;23.252;2023-02-26T12:28:51;93919.84;;;17.20;nan
9261;BME280;4667;42.726;23.252;2023-02-26T12:31:45;93926.34;;;17.31;nan
9261;BME280;4667;42.726;23.252;2023-02-26T12:34:33;93959.44;;;17.42;nan
9261;BME280;4667;42.726;23.252;2023-02-26T12:37:13;93938.06;;;17.23;nan
9261;BME280;4667;42.726;23.252;2023-02-26T12:39:54;93943.47;;;17.50;nan
9261;BME280;4667;42.726;23.252;2023-02-26T12:42:31;93948.06;;;17.77;nan
9261;BME280;4667;42.726;23.252;2023-02-26T12:45:17;93949.19;;;17.94;nan
9261;BME280;4667;42.726;23.252;2023-02-26T12:47:57;93961.41;;;18.41;nan
9261;BME280;4667;42.726;23.252;2023-02-26T12:50:50;93970.50;;;18.70;nan
9261;BME280;4667;42.726;23.252;2023-02-26T12:53:47;93967.16;;;18.43;nan
9261;BME280;4667;42.726;23.252;2023-02-26T12:56:26;93976.78;;;18.86;nan
9261;BME280;4667;42.726;23.252;2023-02-26T13:02:01;93979.13;;;18.54;nan
9261;BME280;4667;42.726;23.252;2023-02-26T13:08:11;93968.13;;;18.63;nan
9261;BME280;4667;42.726;23.252;2023-02-26T13:10:50;93970.88;;;18.63;nan
9261;BME280;4667;42.726;23.252;2023-02-26T13:13:40;93990.09;;;18.54;nan
9261;BME280;4667;42.726;23.252;2023-02-26T13:16:22;93981.84;;;18.40;nan
9261;BME280;4667;42.726;23.252;2023-02-26T13:19:03;93979.19;;;18.21;nan
9261;BME280;4667;42.726;23.252;2023-02-26T13:21:35;93994.69;;;18.57;nan
9261;BME280;4667;42.726;23.252;2023-02-26T13:24:06;93978.44;;;18.45;nan
9261;BME280;4667;42.726;23.252;2023-02-26T13:26:39;93978.56;;;18.26;nan
9261;BME280;4667;42.726;23.252;2023-02-26T13:29:14;93996.88;;;18.20;nan
9261;BME280;4667;42.726;23.252;2023-02-26T13:31:48;93994.44;;;18.46;nan
9261;BME280;4667;42.726;23.252;2023-02-26T13:34:19;93985.59;;;18.42;nan
9261;BME280;4667;42.726;23.252;2023-02-26T13:36:48;93985.50;;;18.60;nan
9261;BME280;4667;42.726;23.252;2023-02-26T13:39:37;94005.34;;;18.55;nan
9261;BME280;4667;42.726;23.252;2023-02-26T13:42:17;93961.91;;;18.77;nan
9261;BME280;4667;42.726;23.252;2023-02-26T13:44:57;93957.88;;;19.02;nan
9261;BME280;4667;42.726;23.252;2023-02-26T13:47:38;93943.88;;;19.15;nan
9261;BME280;4667;42.726;23.252;2023-02-26T13:50:27;93963.66;;;19.19;nan
9261;BME280;4667;42.726;23.252;2023-02-26T13:53:01;93935.94;;;19.17;nan
9261;BME280;4667;42.726;23.252;2023-02-26T13:55:40;93943.13;;;19.00;nan
9261;BME280;4667;42.726;23.252;2023-02-26T13:58:36;93953.72;;;19.66;nan
9261;BME280;4667;42.726;23.252;2023-02-26T14:01:08;93955.63;;;19.60;nan
9261;BME280;4667;42.726;23.252;2023-02-26T14:03:36;93943.78;;;19.39;nan
9261;BME280;4667;42.726;23.252;2023-02-26T14:09:41;93948.72;;;19.35;nan
9261;BME280;4667;42.726;23.252;2023-02-26T14:12:31;93965.56;;;19.42;nan
9261;BME280;4667;42.726;23.252;2023-02-26T14:15:30;93959.13;;;19.45;nan
9261;BME280;4667;42.726;23.252;2023-02-26T14:18:05;93967.06;;;19.14;nan